»·PEaware :: USC228 KLAS-MMLT

USC228 :: KLAS-MMLT

FLIGHT INFORMATION

Flight Status: Arrived
Operator: Unknown
More flights by this operator :: More flights under this callsign
Pilot: Andy P. (22680)
Aircraft: GATES LEARJET LEARJET 35/36
(LJ35)
More flights by this aircraft type
Origin: KLAS McCarran Intl
United States
Destination: MMLT Loreto Intl
Mexico
More flights between these airports :: More routes between these airports
Route: +BOACH8 TNP MOMAR MXL UT25 LTO
File this flight plan on PilotEdge
Remarks:
Altitude:
(Current/Filed)
43,000ft
Speed:
(Current/Filed)
465kts
Departed: 21-Feb-19 09:24 AM
Arrived: 21-Feb-19 11:01 AM
Distance/Time
Traveled:
636nm/1:36
Distance/Time
To Go:
Arrived

Flight Plot

Page will automatically refresh every two minutes.

Flight plan parsing failed; only flown route is shown


Map Options




Map Legend


Flown Route
Filed Route
Departure Airport
Arrival Airport
Navaid (VOR, NDB)
Fix

Horizontal Profiles

Position Reports

Time Latitude Longitude Heading Altitude Ground
Speed
21-Feb-19 08:57 36.096967 -115.161981 297 2183ft 0kts
21-Feb-19 08:58 36.096967 -115.161981 297 2183ft 0kts
21-Feb-19 08:59 36.096967 -115.161981 297 2183ft 0kts
21-Feb-19 09:00 36.096967 -115.161981 297 2183ft 0kts
21-Feb-19 09:01 36.096967 -115.161981 297 2183ft 0kts
21-Feb-19 09:02 36.096967 -115.161981 297 2183ft 0kts
21-Feb-19 09:03 36.096967 -115.161981 297 2183ft 0kts
21-Feb-19 09:04 36.096967 -115.161981 297 2183ft 0kts
21-Feb-19 09:05 36.096967 -115.161981 297 2183ft 0kts
21-Feb-19 09:06 36.096967 -115.161981 297 2183ft 0kts
21-Feb-19 09:07 36.096967 -115.161981 297 2183ft 0kts
21-Feb-19 09:07 36.096967 -115.161981 297 2183ft 0kts
21-Feb-19 09:09 36.096967 -115.161981 297 2183ft 0kts
21-Feb-19 09:10 36.096967 -115.161981 297 2183ft 0kts
21-Feb-19 09:10 36.096967 -115.161981 297 2183ft 0kts
21-Feb-19 09:11 36.096967 -115.161981 297 2183ft 0kts
21-Feb-19 09:13 36.096967 -115.161981 297 2183ft 0kts
21-Feb-19 09:13 36.096967 -115.161981 297 2183ft 0kts
21-Feb-19 09:14 36.096967 -115.161981 297 2183ft 0kts
21-Feb-19 09:16 36.096967 -115.161981 297 2183ft 0kts
21-Feb-19 09:16 36.096967 -115.161981 297 2183ft 0kts
21-Feb-19 09:17 36.096967 -115.161981 297 2183ft 0kts
21-Feb-19 09:18 36.096967 -115.161981 297 2183ft 0kts
21-Feb-19 09:19 36.097344 -115.161767 68 2183ft 10kts
21-Feb-19 09:20 36.099796 -115.158146 71 2183ft 12kts
21-Feb-19 09:21 36.099863 -115.157811 84 2183ft 0kts
21-Feb-19 09:22 36.097825 -115.157528 203 2183ft 31kts
21-Feb-19 09:23 36.061538 -115.178054 203 3317ft 192kts
21-Feb-19 09:24 36.016336 -115.205549 222 6710ft 154kts
21-Feb-19 09:25 35.991527 -115.258229 241 9777ft 220kts
21-Feb-19 09:26 35.939058 -115.327930 198 12610ft 347kts
21-Feb-19 09:27 35.834040 -115.312497 170 16650ft 400kts
21-Feb-19 09:28 35.722203 -115.301844 176 20335ft 423kts
21-Feb-19 09:29 35.605383 -115.295811 185 23749ft 422kts
21-Feb-19 09:30 35.485402 -115.302144 185 25893ft 440kts
21-Feb-19 09:31 35.360865 -115.307253 186 27602ft 456kts
21-Feb-19 09:32 35.232970 -115.312292 188 29360ft 457kts
21-Feb-19 09:33 35.106248 -115.317264 189 31352ft 452kts
21-Feb-19 09:34 34.981331 -115.322148 190 33344ft 445kts
21-Feb-19 09:35 34.859296 -115.326905 190 35329ft 434kts
21-Feb-19 09:36 34.743769 -115.345286 208 37113ft 405kts
21-Feb-19 09:37 34.638065 -115.393354 207 38394ft 406kts
21-Feb-19 09:38 34.531480 -115.440139 207 39513ft 407kts
21-Feb-19 09:39 34.424986 -115.486549 207 40554ft 407kts
21-Feb-19 09:40 34.317342 -115.536819 219 40731ft 415kts
21-Feb-19 09:41 34.232975 -115.633194 229 40721ft 421kts
21-Feb-19 09:42 34.147524 -115.730351 228 40722ft 423kts
21-Feb-19 09:43 34.043771 -115.798948 198 40725ft 452kts
21-Feb-19 09:44 33.920457 -115.828229 199 40713ft 452kts
21-Feb-19 09:45 33.797979 -115.862535 200 40700ft 452kts
21-Feb-19 09:46 33.675814 -115.897893 200 40677ft 451kts
21-Feb-19 09:47 33.554313 -115.933173 200 40689ft 447kts
21-Feb-19 09:48 33.428600 -115.912495 145 39630ft 502kts
21-Feb-19 09:49 33.337233 -115.793434 148 40750ft 477kts
21-Feb-19 09:50 33.226174 -115.708061 154 40713ft 476kts
21-Feb-19 09:51 33.114511 -115.621233 152 40732ft 481kts
21-Feb-19 09:52 33.006464 -115.535360 152 40736ft 485kts
21-Feb-19 09:53 32.894022 -115.445849 152 40737ft 488kts
21-Feb-19 09:54 32.780943 -115.356032 152 40738ft 489kts
21-Feb-19 09:55 32.667720 -115.266363 152 40738ft 490kts
21-Feb-19 09:56 32.549770 -115.189141 160 40745ft 482kts
21-Feb-19 09:57 32.429506 -115.117914 160 40745ft 482kts
21-Feb-19 09:58 32.309928 -115.047279 160 40745ft 481kts
21-Feb-19 09:59 32.189815 -114.976418 160 40745ft 481kts
21-Feb-19 10:00 32.070407 -114.906188 160 40745ft 480kts
21-Feb-19 10:01 31.950917 -114.836118 160 40745ft 479kts
21-Feb-19 10:02 31.831442 -114.766270 160 40745ft 477kts
21-Feb-19 10:03 31.712615 -114.697059 161 40755ft 476kts
21-Feb-19 10:04 31.593790 -114.628044 161 40762ft 476kts
21-Feb-19 10:05 31.474873 -114.559173 161 40762ft 476kts
21-Feb-19 10:06 31.356295 -114.490691 161 40762ft 476kts
21-Feb-19 10:07 31.237555 -114.422311 161 40762ft 475kts
21-Feb-19 10:08 31.118729 -114.354074 161 40770ft 475kts
21-Feb-19 10:09 31.000097 -114.286148 161 40770ft 475kts
21-Feb-19 10:10 30.881722 -114.218564 161 40774ft 475kts
21-Feb-19 10:11 30.762916 -114.150921 161 40778ft 474kts
21-Feb-19 10:12 30.644217 -114.083527 161 40784ft 474kts
21-Feb-19 10:13 30.525698 -114.016420 161 40789ft 473kts
21-Feb-19 10:14 30.407209 -113.949510 161 40796ft 472kts
21-Feb-19 10:15 30.289404 -113.883172 161 40836ft 471kts
21-Feb-19 10:16 30.171116 -113.816746 161 40836ft 472kts
21-Feb-19 10:17 30.052826 -113.750491 162 40837ft 472kts
21-Feb-19 10:18 29.934620 -113.684451 161 40906ft 470kts
21-Feb-19 10:19 29.816913 -113.618879 162 40933ft 470kts
21-Feb-19 10:20 29.698958 -113.553308 162 40933ft 470kts
21-Feb-19 10:21 29.581083 -113.487944 161 40933ft 470kts
21-Feb-19 10:22 29.463419 -113.422867 162 40940ft 469kts
21-Feb-19 10:23 29.345844 -113.358009 162 40944ft 468kts
21-Feb-19 10:24 29.228597 -113.293502 161 40949ft 467kts
21-Feb-19 10:25 29.111235 -113.229094 162 40954ft 467kts
21-Feb-19 10:26 28.994183 -113.165019 162 40987ft 466kts
21-Feb-19 10:27 28.877011 -113.101046 161 40987ft 466kts
21-Feb-19 10:28 28.760243 -113.037451 162 40988ft 465kts
21-Feb-19 10:29 28.643130 -112.973823 162 40988ft 465kts
21-Feb-19 10:30 28.526522 -112.910630 162 40988ft 464kts
21-Feb-19 10:31 28.409994 -112.847634 162 40988ft 464kts
21-Feb-19 10:32 28.293711 -112.784927 162 40988ft 463kts
21-Feb-19 10:33 28.177169 -112.722234 162 40983ft 462kts
21-Feb-19 10:34 28.058134 -112.658371 161 39532ft 465kts
21-Feb-19 10:35 27.943920 -112.597142 161 37297ft 449kts
21-Feb-19 10:36 27.833548 -112.538187 160 35362ft 427kts
21-Feb-19 10:37 27.735182 -112.485800 160 33669ft 415kts
21-Feb-19 10:38 27.622247 -112.425923 159 31768ft 480kts
21-Feb-19 10:39 27.500184 -112.361061 158 29670ft 489kts
21-Feb-19 10:40 27.376768 -112.295704 158 27524ft 492kts
21-Feb-19 10:41 27.256556 -112.221080 151 25404ft 494kts
21-Feb-19 10:42 27.140053 -112.139980 152 23288ft 483kts
21-Feb-19 10:43 27.029526 -112.063659 152 21265ft 458kts
21-Feb-19 10:44 26.921369 -111.989295 152 19294ft 455kts
21-Feb-19 10:45 26.814227 -111.915763 152 17345ft 444kts
21-Feb-19 10:46 26.710076 -111.844460 152 15454ft 433kts
21-Feb-19 10:47 26.609586 -111.775795 151 13623ft 411kts
21-Feb-19 10:48 26.514169 -111.710757 151 11891ft 396kts
21-Feb-19 10:49 26.420017 -111.646720 150 10188ft 396kts
21-Feb-19 10:50 26.328200 -111.584368 150 8512ft 359kts
21-Feb-19 10:51 26.302354 -111.564284 138 7766ft 334kts
21-Feb-19 10:52 26.302354 -111.564284 138 7766ft 334kts
21-Feb-19 10:54 26.302354 -111.564284 138 7766ft 334kts
21-Feb-19 10:55 26.267882 -111.517417 129 5407ft 266kts
21-Feb-19 10:56 26.222341 -111.448199 114 3640ft 281kts
21-Feb-19 10:57 26.182798 -111.371915 144 2897ft 287kts
21-Feb-19 10:58 26.109233 -111.358437 188 2327ft 258kts
21-Feb-19 10:59 26.043777 -111.355596 175 1586ft 194kts
21-Feb-19 11:00 26.000799 -111.349784 176 107ft 138kts
21-Feb-19 11:01 25.982389 -111.347339 173 37ft 25kts
21-Feb-19 11:02 25.984129 -111.347589 353 37ft 36kts
21-Feb-19 11:03 25.991495 -111.350127 263 37ft 13kts
21-Feb-19 11:04 25.990051 -111.351460 100 37ft 11kts
21-Feb-19 11:05 25.990914 -111.352029 0 37ft 0kts
21-Feb-19 11:06 25.990914 -111.352029 0 37ft 0kts
21-Feb-19 11:07 25.990914 -111.352029 0 37ft 0kts
21-Feb-19 11:08 25.990914 -111.352029 0 37ft 0kts
21-Feb-19 11:09 25.990914 -111.352029 0 37ft 0kts
21-Feb-19 11:10 25.990914 -111.352029 0 37ft 0kts
21-Feb-19 11:11 25.990914 -111.352029 0 37ft 0kts
21-Feb-19 11:12 25.990914 -111.352029 0 37ft 0kts
21-Feb-19 11:12 25.990914 -111.352029 0 37ft 0kts
21-Feb-19 11:14 25.990914 -111.352029 0 37ft 0kts
21-Feb-19 11:14 25.990914 -111.352029 0 37ft 0kts

Navigation Log

Ident Type
Flight plan parsing failed, navigation log unavailable